createdAt,value
2023-08-30T00:00:33.003Z,15.15
2023-08-30T00:03:01.116Z,15.14
2023-08-30T00:05:29.627Z,15.11
2023-08-30T00:07:57.513Z,15.07
2023-08-30T00:10:25.136Z,15.07
2023-08-30T00:12:54.075Z,15.06
2023-08-30T00:15:21.792Z,15.04
2023-08-30T00:17:49.713Z,15.04
2023-08-30T00:20:17.420Z,15.04
2023-08-30T00:22:44.985Z,15.06
2023-08-30T00:25:12.549Z,15.07
2023-08-30T00:27:40.114Z,15.06
2023-08-30T00:30:10.693Z,15.07
2023-08-30T00:32:38.372Z,15.04
2023-08-30T00:35:06.805Z,15.03
2023-08-30T00:37:34.374Z,15.01
2023-08-30T00:40:02.199Z,15.01
2023-08-30T00:42:29.807Z,15.03
2023-08-30T00:44:57.414Z,15.03
2023-08-30T00:47:26.585Z,15.02
2023-08-30T00:49:54.494Z,14.97
2023-08-30T00:52:22.135Z,14.98
2023-08-30T00:54:50.062Z,15.00
2023-08-30T00:57:18.194Z,15.03
2023-08-30T00:59:45.821Z,15.02
2023-08-30T01:02:14.377Z,15.05
2023-08-30T01:04:43.335Z,15.03
2023-08-30T01:07:10.938Z,15.02
2023-08-30T01:09:38.806Z,15.04
2023-08-30T01:12:12.990Z,15.03
2023-08-30T01:14:45.922Z,14.99
2023-08-30T01:17:18.560Z,14.92
2023-08-30T01:19:53.265Z,14.88
2023-08-30T01:22:30.190Z,14.88
2023-08-30T01:25:09.596Z,14.82
2023-08-30T01:27:39.463Z,14.77
2023-08-30T01:30:09.745Z,14.75
2023-08-30T01:32:39.534Z,14.73
2023-08-30T01:35:09.619Z,14.71
2023-08-30T01:37:38.939Z,14.70
2023-08-30T01:40:09.237Z,14.67
2023-08-30T01:42:38.642Z,14.63
2023-08-30T01:45:09.336Z,14.64
2023-08-30T01:47:37.848Z,14.65
2023-08-30T01:50:06.619Z,14.65
2023-08-30T01:52:34.831Z,14.68
2023-08-30T01:55:04.194Z,14.68
2023-08-30T01:57:31.860Z,14.67
2023-08-30T02:00:00.859Z,14.63
2023-08-30T02:02:31.102Z,14.61
2023-08-30T02:04:58.780Z,14.59
2023-08-30T02:07:34.292Z,14.56
2023-08-30T02:10:04.654Z,14.51
2023-08-30T02:12:41.840Z,14.52
2023-08-30T02:15:14.100Z,14.48
2023-08-30T02:17:42.172Z,14.42
2023-08-30T02:20:10.136Z,14.39
2023-08-30T02:22:37.695Z,14.37
2023-08-30T02:25:05.817Z,14.36
2023-08-30T02:27:36.522Z,14.34
2023-08-30T02:30:04.563Z,14.35
2023-08-30T02:32:33.503Z,14.37
2023-08-30T02:35:01.065Z,14.36
2023-08-30T02:37:28.619Z,14.37
2023-08-30T02:39:56.223Z,14.35
2023-08-30T02:42:23.820Z,14.33
2023-08-30T02:44:51.382Z,14.32
2023-08-30T02:47:18.947Z,14.30
2023-08-30T02:49:47.927Z,14.29
2023-08-30T02:52:15.484Z,14.29
2023-08-30T02:54:43.046Z,14.29
2023-08-30T02:57:10.850Z,14.34
2023-08-30T02:59:38.406Z,14.36
2023-08-30T03:02:06.170Z,14.37
2023-08-30T03:04:33.808Z,14.37
2023-08-30T03:07:02.796Z,14.35
2023-08-30T03:09:30.369Z,14.35
2023-08-30T03:11:58.001Z,14.34
2023-08-30T03:14:25.801Z,14.33
2023-08-30T03:16:53.424Z,14.34
2023-08-30T03:19:20.999Z,14.38
2023-08-30T03:21:48.601Z,14.42
2023-08-30T03:24:18.653Z,14.47
2023-08-30T03:26:46.213Z,14.49
2023-08-30T03:29:13.751Z,14.50
2023-08-30T03:31:41.355Z,14.52
2023-08-30T03:34:09.000Z,14.47
2023-08-30T03:36:36.721Z,14.40
2023-08-30T03:39:04.559Z,14.37
2023-08-30T03:41:33.533Z,14.40
2023-08-30T03:44:01.151Z,14.42
2023-08-30T03:46:28.821Z,14.45
2023-08-30T03:48:57.631Z,14.45
2023-08-30T03:51:25.216Z,14.41
2023-08-30T03:53:53.135Z,14.39
2023-08-30T03:56:20.776Z,14.35
2023-08-30T03:58:49.700Z,14.30
2023-08-30T04:01:17.579Z,14.25
2023-08-30T04:03:45.313Z,14.21
2023-08-30T04:06:12.978Z,14.18
2023-08-30T04:08:40.588Z,14.16
2023-08-30T04:11:08.204Z,14.11
2023-08-30T04:13:36.363Z,14.06
2023-08-30T04:16:05.661Z,14.02
2023-08-30T04:18:33.261Z,13.99
2023-08-30T04:21:03.115Z,14.01
2023-08-30T04:23:31.175Z,14.01
2023-08-30T04:25:58.785Z,14.02
2023-08-30T04:28:27.858Z,14.00
2023-08-30T04:30:55.763Z,13.99
2023-08-30T04:33:25.146Z,13.99
2023-08-30T04:35:53.206Z,13.98
2023-08-30T04:38:20.926Z,13.98
2023-08-30T04:40:49.050Z,14.03
2023-08-30T04:43:18.915Z,14.08
2023-08-30T04:45:49.577Z,14.16
2023-08-30T04:48:17.225Z,14.18
2023-08-30T04:50:46.179Z,14.19
2023-08-30T04:53:13.768Z,14.24
2023-08-30T04:55:41.383Z,14.25
2023-08-30T04:58:09.199Z,14.18
2023-08-30T05:00:37.270Z,14.14
2023-08-30T05:03:05.383Z,14.11
2023-08-30T05:05:33.058Z,14.09
2023-08-30T05:08:02.073Z,14.07
2023-08-30T05:10:29.747Z,14.06
2023-08-30T05:12:57.422Z,14.06
2023-08-30T05:15:25.024Z,14.04
2023-08-30T05:17:52.676Z,14.02
2023-08-30T05:20:20.347Z,14.00
2023-08-30T05:22:47.917Z,14.00
2023-08-30T05:25:17.052Z,14.01
2023-08-30T05:27:44.771Z,13.96
2023-08-30T05:30:13.885Z,13.97
2023-08-30T05:32:41.647Z,14.00
2023-08-30T05:35:10.088Z,14.05
2023-08-30T05:37:37.688Z,14.11
2023-08-30T05:40:06.318Z,14.16
2023-08-30T05:42:36.112Z,14.21
2023-08-30T05:45:05.164Z,14.29
2023-08-30T05:47:33.155Z,14.35
2023-08-30T05:50:00.940Z,14.36
2023-08-30T05:52:28.520Z,14.35
2023-08-30T05:54:56.125Z,14.40
2023-08-30T05:57:24.882Z,14.45
2023-08-30T05:59:53.813Z,14.48
2023-08-30T06:02:21.386Z,14.51
2023-08-30T06:04:48.918Z,14.54
2023-08-30T06:07:16.481Z,14.59
2023-08-30T06:09:44.182Z,14.67
2023-08-30T06:12:11.898Z,14.66
2023-08-30T06:14:39.573Z,14.66
2023-08-30T06:17:08.832Z,14.62
2023-08-30T06:19:36.541Z,14.65
2023-08-30T06:22:04.141Z,14.66
2023-08-30T06:24:31.702Z,14.69
2023-08-30T06:27:00.900Z,14.74
2023-08-30T06:29:28.471Z,14.79
2023-08-30T06:31:56.134Z,14.78
2023-08-30T06:34:25.062Z,14.83
2023-08-30T06:36:52.699Z,14.88
2023-08-30T06:39:20.340Z,14.92
2023-08-30T06:41:48.022Z,14.98
2023-08-30T06:44:15.587Z,15.03
2023-08-30T06:46:43.140Z,15.04
2023-08-30T06:49:11.113Z,15.10
2023-08-30T06:51:40.039Z,15.13
2023-08-30T06:54:07.761Z,15.19
2023-08-30T06:56:35.339Z,15.19
2023-08-30T06:59:03.192Z,15.24
2023-08-30T07:01:30.962Z,15.25
2023-08-30T07:03:58.646Z,15.26
2023-08-30T07:06:30.936Z,15.27
2023-08-30T07:08:59.968Z,15.28
2023-08-30T07:11:33.812Z,15.32
2023-08-30T07:14:02.495Z,15.39
2023-08-30T07:16:30.109Z,15.45
2023-08-30T07:18:57.773Z,15.54
2023-08-30T07:21:27.303Z,15.64
2023-08-30T07:23:55.083Z,15.70
2023-08-30T07:26:24.054Z,15.72
2023-08-30T07:28:51.596Z,15.76
2023-08-30T07:31:19.619Z,15.83
2023-08-30T07:33:47.307Z,15.91
2023-08-30T07:36:16.915Z,16.00
2023-08-30T07:38:44.518Z,16.13
2023-08-30T07:41:13.172Z,16.22
2023-08-30T07:43:42.143Z,16.32
2023-08-30T07:46:09.814Z,16.43
2023-08-30T07:48:37.483Z,16.55
2023-08-30T07:51:05.478Z,16.67
2023-08-30T07:53:33.071Z,16.75
2023-08-30T07:56:00.630Z,16.76
2023-08-30T07:58:28.259Z,16.80
2023-08-30T08:00:57.418Z,16.85
2023-08-30T08:03:25.205Z,16.88
2023-08-30T08:05:52.941Z,16.91
2023-08-30T08:08:20.844Z,16.96
2023-08-30T08:10:48.834Z,17.01
2023-08-30T08:13:16.690Z,17.04
2023-08-30T08:15:45.136Z,17.11
2023-08-30T08:18:14.194Z,17.19
2023-08-30T08:20:41.791Z,17.24
2023-08-30T08:23:09.627Z,17.28
2023-08-30T08:25:37.472Z,17.30
2023-08-30T08:28:08.570Z,17.33
2023-08-30T08:30:37.980Z,17.36
2023-08-30T08:33:06.035Z,17.41
2023-08-30T08:35:34.999Z,17.47
2023-08-30T08:38:02.638Z,17.58
2023-08-30T08:40:41.933Z,17.69
2023-08-30T08:43:12.618Z,17.79
2023-08-30T08:45:40.677Z,17.83
2023-08-30T08:48:09.490Z,17.92
2023-08-30T08:50:39.404Z,17.90
2023-08-30T08:53:08.388Z,17.88
2023-08-30T08:55:37.320Z,17.86
2023-08-30T08:58:06.351Z,17.87
2023-08-30T09:00:34.030Z,17.88
2023-08-30T09:03:02.575Z,17.83
2023-08-30T09:05:31.501Z,17.84
2023-08-30T09:08:00.642Z,17.86
2023-08-30T09:10:28.309Z,17.90
2023-08-30T09:12:55.948Z,17.92
2023-08-30T09:15:23.697Z,17.93
2023-08-30T09:17:51.569Z,17.95
2023-08-30T09:20:21.092Z,17.97
2023-08-30T09:26:10.615Z,18.07
2023-08-30T09:32:32.549Z,18.15
2023-08-30T09:35:12.631Z,18.16
2023-08-30T10:25:11.970Z,19.57
2023-08-30T10:31:20.240Z,19.61
2023-08-30T10:34:01.412Z,19.60
2023-08-30T10:39:24.696Z,19.73
2023-08-30T10:42:00.936Z,19.75
2023-08-30T10:44:28.803Z,19.81
2023-08-30T10:46:57.702Z,19.79
2023-08-30T10:52:03.041Z,19.85
2023-08-30T10:54:39.887Z,19.94
2023-08-30T10:57:15.985Z,20.01
2023-08-30T11:00:06.455Z,20.07
2023-08-30T11:02:34.773Z,20.16
2023-08-30T11:05:04.643Z,20.18
2023-08-30T11:07:33.909Z,20.26
2023-08-30T11:10:02.238Z,20.30
2023-08-30T11:12:32.419Z,20.35
2023-08-30T11:15:00.193Z,20.33
2023-08-30T11:17:29.298Z,20.32
2023-08-30T11:20:07.456Z,20.30
2023-08-30T11:22:35.529Z,20.30
2023-08-30T11:25:05.048Z,20.28
2023-08-30T11:27:34.577Z,20.25
2023-08-30T11:30:03.982Z,20.25
2023-08-30T11:32:35.414Z,20.30
2023-08-30T11:35:03.863Z,20.32
2023-08-30T11:37:32.453Z,20.35
2023-08-30T11:40:01.900Z,20.37
2023-08-30T11:42:30.465Z,20.44
2023-08-30T11:45:14.181Z,20.48
2023-08-30T11:47:45.697Z,20.50
2023-08-30T11:50:19.163Z,20.53
2023-08-30T11:52:47.139Z,20.60
2023-08-30T11:55:16.900Z,20.68
2023-08-30T11:57:46.904Z,20.77
2023-08-30T12:00:25.196Z,20.87
2023-08-30T12:02:54.021Z,20.89
2023-08-30T12:05:22.883Z,20.93
2023-08-30T12:07:51.118Z,20.96
2023-08-30T12:10:21.469Z,20.92
2023-08-30T12:12:49.410Z,20.92
2023-08-30T12:15:19.506Z,20.97
2023-08-30T12:17:47.395Z,21.04
2023-08-30T12:20:21.955Z,21.10
2023-08-30T12:22:52.104Z,21.13
2023-08-30T12:25:24.850Z,21.15
2023-08-30T12:27:54.487Z,21.19
2023-08-30T12:30:24.046Z,21.19
2023-08-30T12:32:52.511Z,21.22
2023-08-30T12:35:20.590Z,21.23
2023-08-30T12:37:48.944Z,21.28
2023-08-30T12:40:17.434Z,21.34
2023-08-30T12:42:45.852Z,21.37
2023-08-30T12:45:21.289Z,21.40
2023-08-30T12:47:50.899Z,21.45
2023-08-30T12:50:23.498Z,21.49
2023-08-30T12:52:51.332Z,21.50
2023-08-30T12:55:21.492Z,21.55
2023-08-30T12:57:49.279Z,21.60
2023-08-30T13:00:20.750Z,21.63
2023-08-30T13:02:49.951Z,21.65
2023-08-30T13:05:21.415Z,21.69
2023-08-30T13:07:49.752Z,21.72
2023-08-30T13:10:18.230Z,21.72
2023-08-30T13:12:46.919Z,21.68
2023-08-30T13:15:15.012Z,21.67
2023-08-30T13:17:43.183Z,21.62
2023-08-30T13:20:13.774Z,21.63
2023-08-30T13:22:43.477Z,21.62
2023-08-30T13:25:12.908Z,21.57
2023-08-30T13:27:42.702Z,21.54
2023-08-30T13:30:13.544Z,21.51
2023-08-30T13:32:44.657Z,21.51
2023-08-30T13:35:23.810Z,21.56
2023-08-30T13:37:56.451Z,21.57
2023-08-30T13:40:25.191Z,21.52
2023-08-30T13:42:54.111Z,21.53
2023-08-30T13:45:22.579Z,21.53
2023-08-30T13:47:58.516Z,21.57
2023-08-30T13:50:31.585Z,21.59
2023-08-30T13:53:04.551Z,21.61
2023-08-30T13:55:34.585Z,21.63
2023-08-30T13:58:07.946Z,21.63
2023-08-30T14:00:38.680Z,21.64
2023-08-30T14:03:09.841Z,21.64
2023-08-30T14:05:41.691Z,21.62
2023-08-30T14:08:15.965Z,21.56
2023-08-30T14:10:46.344Z,21.53
2023-08-30T14:13:14.800Z,21.49
2023-08-30T14:15:46.091Z,21.45
2023-08-30T14:18:15.069Z,21.41
2023-08-30T14:20:45.663Z,21.37
2023-08-30T14:23:15.120Z,21.37
2023-08-30T14:25:45.039Z,21.42
2023-08-30T14:28:13.262Z,21.39
2023-08-30T14:30:43.426Z,21.36
2023-08-30T14:33:12.204Z,21.33
2023-08-30T14:35:45.584Z,21.31
2023-08-30T14:38:14.129Z,21.26
2023-08-30T14:40:42.968Z,21.20
2023-08-30T14:43:11.639Z,21.18
2023-08-30T14:45:40.200Z,21.14
2023-08-30T14:48:10.235Z,21.13
2023-08-30T14:50:43.171Z,21.12
2023-08-30T14:53:13.085Z,21.07
2023-08-30T14:55:44.123Z,21.00
2023-08-30T14:58:12.773Z,20.94
2023-08-30T15:00:43.488Z,20.91
2023-08-30T15:03:11.986Z,20.89
2023-08-30T15:05:41.004Z,20.86
2023-08-30T15:08:09.973Z,20.87
2023-08-30T15:10:41.600Z,20.87
2023-08-30T15:13:10.214Z,20.87
2023-08-30T15:15:43.717Z,20.90
2023-08-30T15:18:15.487Z,20.89
2023-08-30T15:20:48.632Z,20.89
2023-08-30T15:23:18.939Z,20.86
2023-08-30T15:25:48.660Z,20.83
2023-08-30T15:28:16.849Z,20.79
2023-08-30T15:30:44.799Z,20.74
2023-08-30T15:33:13.979Z,20.68
2023-08-30T15:35:43.844Z,20.61
2023-08-30T15:38:13.179Z,20.57
2023-08-30T15:40:40.751Z,20.54
2023-08-30T15:43:10.188Z,20.48
2023-08-30T15:45:38.557Z,20.43
2023-08-30T15:48:07.364Z,20.37
2023-08-30T15:50:35.427Z,20.30
2023-08-30T15:53:02.979Z,20.24
2023-08-30T15:55:31.733Z,20.22
2023-08-30T15:57:59.330Z,20.17
2023-08-30T16:00:28.272Z,20.16
2023-08-30T16:02:59.063Z,20.14
2023-08-30T16:05:26.796Z,20.11
2023-08-30T16:07:54.548Z,20.08
2023-08-30T16:10:22.373Z,20.01
2023-08-30T16:12:49.969Z,19.97
2023-08-30T16:15:17.660Z,19.97
2023-08-30T16:17:46.697Z,19.93
2023-08-30T16:20:14.527Z,19.90
2023-08-30T16:22:43.456Z,19.87
2023-08-30T16:25:11.312Z,19.82
2023-08-30T16:27:39.033Z,19.81
2023-08-30T16:30:07.533Z,19.82
2023-08-30T16:32:35.934Z,19.81
2023-08-30T16:35:05.375Z,19.80
2023-08-30T16:37:33.000Z,19.81
2023-08-30T16:40:00.619Z,19.80
2023-08-30T16:42:28.222Z,19.76
2023-08-30T16:44:56.212Z,19.72
2023-08-30T16:47:23.881Z,19.72
2023-08-30T16:49:51.559Z,19.72
2023-08-30T16:52:20.578Z,19.68
2023-08-30T16:54:48.288Z,19.67
2023-08-30T16:57:15.954Z,19.63
2023-08-30T16:59:43.597Z,19.56
2023-08-30T17:02:11.614Z,19.53
2023-08-30T17:04:39.349Z,19.50
2023-08-30T17:07:07.016Z,19.45
2023-08-30T17:09:39.306Z,19.43
2023-08-30T17:12:07.248Z,19.42
2023-08-30T17:14:34.871Z,19.37
2023-08-30T17:17:03.093Z,19.32
2023-08-30T17:19:30.948Z,19.26
2023-08-30T17:21:58.647Z,19.23
2023-08-30T17:24:26.357Z,19.18
2023-08-30T17:26:55.354Z,19.18
2023-08-30T17:29:22.948Z,19.14
2023-08-30T17:31:50.653Z,19.08
2023-08-30T17:34:18.607Z,19.05
2023-08-30T17:36:48.629Z,19.04
2023-08-30T17:39:16.579Z,19.00
2023-08-30T17:41:44.750Z,18.96
2023-08-30T17:44:13.845Z,18.91
2023-08-30T17:46:43.111Z,18.87
2023-08-30T17:49:12.258Z,18.85
2023-08-30T17:51:41.186Z,18.78
2023-08-30T17:54:09.034Z,18.72
2023-08-30T17:56:36.830Z,18.65
2023-08-30T17:59:04.730Z,18.63
2023-08-30T18:01:33.742Z,18.64
2023-08-30T18:04:02.335Z,18.59
2023-08-30T18:06:30.127Z,18.60
2023-08-30T18:08:59.105Z,18.58
2023-08-30T18:11:28.342Z,18.54
2023-08-30T18:13:56.020Z,18.52
2023-08-30T18:16:26.949Z,18.48
2023-08-30T18:18:57.730Z,18.39
2023-08-30T18:21:26.304Z,18.32
2023-08-30T18:24:24.935Z,18.24
2023-08-30T18:26:53.695Z,18.15
2023-08-30T18:29:21.703Z,18.06
2023-08-30T18:31:49.673Z,18.02
2023-08-30T18:34:19.122Z,17.95
2023-08-30T18:36:47.779Z,17.91
2023-08-30T18:39:16.395Z,17.84
2023-08-30T18:41:44.025Z,17.74
2023-08-30T18:44:12.218Z,17.65
2023-08-30T18:46:39.980Z,17.60
2023-08-30T18:49:07.605Z,17.54
2023-08-30T18:51:37.137Z,17.50
2023-08-30T18:54:06.107Z,17.46
2023-08-30T18:56:34.167Z,17.42
2023-08-30T18:59:02.128Z,17.37
2023-08-30T19:01:31.901Z,17.30
2023-08-30T19:04:00.417Z,17.27
2023-08-30T19:06:28.521Z,17.23
2023-08-30T19:08:57.568Z,17.19
2023-08-30T19:11:25.437Z,17.15
2023-08-30T19:13:53.517Z,17.09
2023-08-30T19:16:22.478Z,17.06
2023-08-30T19:18:50.495Z,17.04
2023-08-30T19:21:20.910Z,17.01
2023-08-30T19:23:49.081Z,16.97
2023-08-30T19:26:18.158Z,16.93
2023-08-30T19:28:46.530Z,16.91
2023-08-30T19:31:14.222Z,16.87
2023-08-30T19:33:41.915Z,16.84
2023-08-30T19:36:09.519Z,16.80
2023-08-30T19:38:37.163Z,16.75
2023-08-30T19:41:05.352Z,16.71
2023-08-30T19:43:35.864Z,16.68
2023-08-30T19:46:04.699Z,16.63
2023-08-30T19:48:35.687Z,16.61
2023-08-30T19:51:03.461Z,16.59
2023-08-30T19:53:31.362Z,16.57
2023-08-30T19:56:01.907Z,16.54
2023-08-30T19:58:29.678Z,16.53
2023-08-30T20:01:05.034Z,16.53
2023-08-30T20:03:33.242Z,16.51
2023-08-30T20:06:01.271Z,16.52
2023-08-30T20:08:30.735Z,16.50
2023-08-30T20:11:04.936Z,16.50
2023-08-30T20:16:26.057Z,16.42
2023-08-30T20:18:54.878Z,16.39
2023-08-30T20:21:22.506Z,16.35
2023-08-30T20:23:50.233Z,16.32
2023-08-30T20:26:20.390Z,16.31
2023-08-30T20:28:50.567Z,16.30
2023-08-30T20:31:18.270Z,16.30
2023-08-30T20:33:49.362Z,16.31
2023-08-30T20:36:17.527Z,16.35
2023-08-30T20:38:46.991Z,16.39
2023-08-30T20:41:14.622Z,16.40
2023-08-30T20:43:42.295Z,16.41
2023-08-30T20:46:11.963Z,16.42
2023-08-30T20:48:39.732Z,16.41
2023-08-30T20:51:08.711Z,16.42
2023-08-30T20:53:37.942Z,16.42
2023-08-30T20:56:09.001Z,16.42
2023-08-30T20:58:40.824Z,16.40
2023-08-30T21:01:08.430Z,16.38
2023-08-30T21:03:36.165Z,16.36
2023-08-30T21:06:05.043Z,16.36
2023-08-30T21:08:36.482Z,16.35
2023-08-30T21:11:04.203Z,16.32
2023-08-30T21:13:31.804Z,16.33
2023-08-30T21:15:59.402Z,16.32
2023-08-30T21:18:27.071Z,16.33
2023-08-30T21:20:57.896Z,16.39
2023-08-30T21:23:25.801Z,16.43
2023-08-30T21:25:55.052Z,16.45
2023-08-30T21:28:23.395Z,16.45
2023-08-30T21:30:51.710Z,16.45
2023-08-30T21:33:20.933Z,16.48
2023-08-30T21:35:49.158Z,16.51
2023-08-30T21:38:18.776Z,16.50
2023-08-30T21:40:47.248Z,16.48
2023-08-30T21:43:17.078Z,16.51
2023-08-30T21:45:45.432Z,16.53
2023-08-30T21:48:13.875Z,16.53
2023-08-30T21:50:41.734Z,16.53
2023-08-30T21:53:09.958Z,16.54
2023-08-30T21:55:38.457Z,16.55
2023-08-30T21:58:06.576Z,16.56
2023-08-30T22:00:36.006Z,16.54
2023-08-30T22:03:03.963Z,16.54
2023-08-30T22:05:32.469Z,16.52
2023-08-30T22:08:00.628Z,16.52
2023-08-30T22:10:28.507Z,16.49
2023-08-30T22:12:57.422Z,16.48
2023-08-30T22:15:25.704Z,16.46
2023-08-30T22:17:54.917Z,16.47
2023-08-30T22:20:23.039Z,16.48
2023-08-30T22:22:51.213Z,16.47
2023-08-30T22:25:20.560Z,16.43
2023-08-30T22:27:48.681Z,16.36
2023-08-30T22:30:17.297Z,16.34
2023-08-30T22:32:45.902Z,16.33
2023-08-30T22:35:16.604Z,16.33
2023-08-30T22:37:45.644Z,16.34
2023-08-30T22:40:13.899Z,16.35
2023-08-30T22:42:42.617Z,16.35
2023-08-30T22:45:11.946Z,16.34
2023-08-30T22:47:40.377Z,16.30
2023-08-30T22:50:09.986Z,16.23
2023-08-30T22:52:39.932Z,16.23
2023-08-30T22:55:09.131Z,16.23
2023-08-30T22:57:37.231Z,16.21
2023-08-30T23:00:08.652Z,16.19
2023-08-30T23:02:37.095Z,16.15
2023-08-30T23:05:07.265Z,16.14
2023-08-30T23:07:35.623Z,16.14
2023-08-30T23:10:06.614Z,16.12
2023-08-30T23:12:35.471Z,16.10
2023-08-30T23:15:03.573Z,16.07
2023-08-30T23:17:31.472Z,16.08
2023-08-30T23:19:59.876Z,16.08
2023-08-30T23:22:27.685Z,16.03
2023-08-30T23:24:55.424Z,16.01
2023-08-30T23:27:25.934Z,15.99
2023-08-30T23:29:53.909Z,15.96
2023-08-30T23:32:21.672Z,15.95
2023-08-30T23:34:49.826Z,15.95
2023-08-30T23:37:17.809Z,15.94
2023-08-30T23:39:45.624Z,15.98
2023-08-30T23:42:13.849Z,16.02
2023-08-30T23:44:43.253Z,16.04
2023-08-30T23:47:11.167Z,16.06
2023-08-30T23:49:39.103Z,16.06
2023-08-30T23:52:07.785Z,16.04
2023-08-30T23:54:36.135Z,16.06
2023-08-30T23:57:04.684Z,16.05
2023-08-30T23:59:32.513Z,16.06
